createdAt,value
2022-09-01T00:03:03.147Z,89.57
2022-09-01T00:08:05.638Z,89.87
2022-09-01T00:13:08.438Z,89.82
2022-09-01T00:18:10.312Z,89.71
2022-09-01T00:23:12.398Z,89.76
2022-09-01T00:28:14.283Z,90.10
2022-09-01T00:33:16.253Z,90.12
2022-09-01T00:38:18.343Z,90.19
2022-09-01T00:43:36.287Z,90.26
2022-09-01T00:48:38.984Z,90.60
2022-09-01T00:53:43.533Z,90.75
2022-09-01T00:58:46.016Z,90.70
2022-09-01T01:03:47.994Z,90.56
2022-09-01T01:08:57.552Z,90.47
2022-09-01T01:14:11.726Z,90.59
2022-09-01T01:19:40.318Z,90.28
2022-09-01T01:24:43.425Z,90.48
2022-09-01T01:29:47.351Z,90.78
2022-09-01T01:34:49.637Z,90.68
2022-09-01T01:39:51.922Z,92.12
2022-09-01T01:44:54.312Z,92.08
2022-09-01T01:49:57.480Z,91.95
2022-09-01T01:55:03.260Z,92.71
2022-09-01T02:00:10.815Z,92.87
2022-09-01T02:05:12.780Z,92.93
2022-09-01T02:10:15.061Z,92.81
2022-09-01T02:15:17.145Z,92.70
2022-09-01T02:20:19.739Z,92.53
2022-09-01T02:25:23.049Z,92.42
2022-09-01T02:30:27.533Z,92.50
2022-09-01T02:35:31.514Z,92.44
2022-09-01T02:40:34.769Z,92.50
2022-09-01T02:45:37.234Z,92.57
2022-09-01T02:50:41.445Z,92.38
2022-09-01T02:55:43.629Z,91.65
2022-09-01T03:00:52.216Z,91.01
2022-09-01T03:05:56.909Z,90.70
2022-09-01T03:11:02.883Z,90.21
2022-09-01T03:16:07.152Z,89.58
2022-09-01T03:21:14.721Z,90.14
2022-09-01T03:26:20.536Z,90.31
2022-09-01T03:31:27.011Z,90.58
2022-09-01T03:36:30.433Z,90.89
2022-09-01T03:41:32.574Z,90.96
2022-09-01T03:46:37.120Z,90.98
2022-09-01T03:51:40.116Z,90.93
2022-09-01T03:56:43.528Z,90.60
2022-09-01T04:01:46.547Z,90.93
2022-09-01T04:06:48.923Z,91.20
2022-09-01T04:11:52.743Z,91.85
2022-09-01T04:17:13.260Z,91.85
2022-09-01T04:22:17.288Z,91.82
2022-09-01T04:27:21.211Z,91.95
2022-09-01T04:32:24.009Z,92.07
2022-09-01T04:37:28.140Z,92.22
2022-09-01T04:42:32.004Z,92.26
2022-09-01T04:47:36.198Z,92.14
2022-09-01T04:52:39.918Z,92.18
2022-09-01T04:57:42.099Z,92.34
2022-09-01T05:02:45.717Z,92.22
2022-09-01T05:07:52.507Z,92.16
2022-09-01T05:12:54.489Z,91.82
2022-09-01T05:17:59.491Z,91.39
2022-09-01T05:23:02.031Z,91.17
2022-09-01T05:28:04.158Z,91.25
2022-09-01T05:33:11.215Z,91.30
2022-09-01T05:38:14.010Z,91.40
2022-09-01T05:43:17.013Z,91.75
2022-09-01T05:48:23.410Z,91.61
2022-09-01T05:53:30.803Z,91.05
2022-09-01T06:04:05.381Z,81.05
2022-09-01T06:09:08.894Z,69.87
2022-09-01T06:14:11.692Z,67.46
2022-09-01T06:19:14.399Z,67.27
2022-09-01T06:24:17.699Z,68.35
2022-09-01T06:29:20.813Z,69.68
2022-09-01T06:34:22.792Z,71.83
2022-09-01T06:39:26.211Z,73.35
2022-09-01T06:44:31.859Z,75.86
2022-09-01T06:49:34.730Z,76.07
2022-09-01T06:54:39.213Z,70.53
2022-09-01T06:59:42.296Z,66.63
2022-09-01T07:04:45.617Z,56.30
2022-09-01T07:10:05.663Z,46.66
2022-09-01T07:21:02.600Z,35.12
2022-09-01T07:26:07.885Z,30.59
2022-09-01T07:53:00.280Z,27.40
2022-09-01T07:58:02.257Z,28.15
2022-09-01T08:03:04.406Z,27.27
2022-09-01T08:08:18.622Z,25.58
2022-09-01T08:13:22.345Z,24.14
2022-09-01T08:18:24.585Z,24.19
2022-09-01T08:23:27.005Z,23.81
2022-09-01T08:28:29.366Z,23.80
2022-09-01T08:33:34.753Z,26.16
2022-09-01T08:38:37.292Z,30.86
2022-09-01T08:43:57.319Z,37.62
2022-09-01T08:49:24.753Z,41.31
2022-09-01T08:54:34.280Z,45.82
2022-09-01T08:59:36.808Z,47.52
2022-09-01T09:05:23.179Z,40.12
2022-09-01T09:10:51.897Z,33.84
2022-09-01T09:16:08.179Z,29.85
2022-09-01T09:21:29.983Z,28.11
2022-09-01T09:26:47.829Z,28.81
2022-09-01T09:32:22.618Z,30.17
2022-09-01T09:37:30.581Z,33.43
2022-09-01T09:42:36.362Z,34.87
2022-09-01T09:47:45.266Z,34.80
2022-09-01T09:52:49.168Z,35.55
2022-09-01T09:57:55.384Z,36.92
2022-09-01T10:03:10.203Z,37.60
2022-09-01T10:08:39.489Z,39.34
2022-09-01T10:13:41.469Z,39.93
2022-09-01T10:18:44.880Z,42.11
2022-09-01T10:23:46.862Z,41.96
2022-09-01T10:28:50.813Z,42.52
2022-09-01T10:33:53.585Z,44.54
2022-09-01T10:39:04.412Z,43.66
2022-09-01T10:44:19.313Z,43.39
2022-09-01T10:49:46.913Z,43.37
2022-09-01T10:54:56.388Z,42.62
2022-09-01T11:00:39.364Z,45.10
2022-09-01T11:06:10.964Z,47.04
2022-09-01T11:11:35.516Z,45.50
2022-09-01T11:16:46.721Z,43.50
2022-09-01T11:22:07.835Z,44.33
2022-09-01T11:27:32.035Z,45.09
2022-09-01T11:32:37.291Z,45.91
2022-09-01T11:37:40.800Z,46.66
2022-09-01T11:42:46.754Z,45.69
2022-09-01T11:47:54.130Z,45.73
2022-09-01T11:53:28.423Z,45.28
2022-09-01T11:58:38.797Z,46.90
2022-09-01T12:03:41.061Z,44.80
2022-09-01T12:08:51.254Z,44.31
2022-09-01T12:14:11.890Z,46.74
2022-09-01T12:19:27.344Z,48.41
2022-09-01T12:24:34.484Z,50.47
2022-09-01T12:29:37.676Z,51.58
2022-09-01T12:34:41.397Z,50.73
2022-09-01T12:39:47.595Z,49.37
2022-09-01T12:44:53.957Z,48.67
2022-09-01T12:49:56.660Z,47.53
2022-09-01T12:54:58.738Z,46.78
2022-09-01T13:00:20.791Z,47.13
2022-09-01T13:05:29.934Z,47.00
2022-09-01T13:10:45.022Z,46.65
2022-09-01T13:15:52.688Z,47.16
2022-09-01T13:20:56.361Z,47.16
2022-09-01T13:26:01.918Z,46.40
2022-09-01T13:36:45.339Z,47.58
2022-09-01T13:41:49.460Z,47.19
2022-09-01T13:46:59.338Z,46.66
2022-09-01T13:52:02.151Z,47.17
2022-09-01T13:57:04.481Z,47.26
2022-09-01T14:02:07.697Z,47.06
2022-09-01T14:07:10.083Z,47.24
2022-09-01T14:12:12.162Z,47.39
2022-09-01T14:17:15.679Z,47.97
2022-09-01T14:22:18.384Z,47.19
2022-09-01T14:27:20.566Z,47.51
2022-09-01T14:32:26.633Z,47.32
2022-09-01T14:37:29.645Z,47.35
2022-09-01T14:42:32.145Z,48.10
2022-09-01T14:47:34.109Z,48.93
2022-09-01T14:52:38.697Z,50.45
2022-09-01T14:57:40.855Z,49.08
2022-09-01T15:02:44.453Z,48.77
2022-09-01T15:07:47.054Z,49.29
2022-09-01T15:12:49.541Z,49.38
2022-09-01T15:17:52.442Z,50.17
2022-09-01T15:22:56.468Z,50.01
2022-09-01T15:27:58.655Z,49.82
2022-09-01T15:33:01.147Z,50.17
2022-09-01T15:38:04.783Z,50.50
2022-09-01T15:43:08.093Z,50.82
2022-09-01T15:48:10.062Z,50.74
2022-09-01T15:53:12.899Z,51.12
2022-09-01T15:58:17.396Z,51.28
2022-09-01T16:03:20.574Z,52.33
2022-09-01T16:08:23.093Z,51.79
2022-09-01T16:13:25.585Z,52.41
2022-09-01T16:18:37.213Z,53.05
2022-09-01T16:23:43.993Z,53.00
2022-09-01T16:28:53.541Z,54.16
2022-09-01T16:34:01.573Z,54.36
2022-09-01T16:39:39.685Z,54.84
2022-09-01T16:44:50.579Z,55.91
2022-09-01T16:50:08.918Z,55.38
2022-09-01T16:55:29.254Z,56.83
2022-09-01T17:00:56.429Z,57.15
2022-09-01T17:06:13.642Z,57.11
2022-09-01T17:11:20.369Z,58.34
2022-09-01T17:16:41.884Z,58.39
2022-09-01T17:22:05.194Z,59.48
2022-09-01T17:27:25.181Z,59.49
2022-09-01T17:33:18.430Z,59.73
2022-09-01T17:38:30.372Z,60.97
2022-09-01T17:43:46.073Z,62.65
2022-09-01T17:48:49.074Z,63.93
2022-09-01T17:54:31.595Z,64.38
2022-09-01T18:00:07.373Z,64.59
2022-09-01T18:05:24.513Z,65.64
2022-09-01T18:10:39.029Z,66.81
2022-09-01T18:15:58.425Z,67.23
2022-09-01T18:21:37.614Z,67.78
2022-09-01T18:26:43.598Z,68.27
2022-09-01T18:32:07.897Z,69.39
2022-09-01T18:37:19.218Z,69.64
2022-09-01T18:42:31.599Z,69.52
2022-09-01T18:47:43.944Z,70.04
2022-09-01T18:53:16.095Z,71.11
2022-09-01T18:58:50.701Z,71.85
2022-09-01T19:04:14.378Z,70.60
2022-09-01T19:09:31.101Z,70.87
2022-09-01T19:14:49.598Z,71.00
2022-09-01T19:20:27.239Z,72.30
2022-09-01T19:25:39.260Z,72.46
2022-09-01T19:31:12.521Z,73.02
2022-09-01T19:36:35.057Z,74.14
2022-09-01T19:41:49.648Z,75.05
2022-09-01T19:47:01.904Z,75.54
2022-09-01T19:52:32.186Z,76.11
2022-09-01T19:58:03.905Z,76.70
2022-09-01T20:03:14.270Z,76.21
2022-09-01T20:08:20.793Z,75.96
2022-09-01T20:13:30.108Z,75.21
2022-09-01T20:18:41.441Z,75.42
2022-09-01T20:23:58.167Z,75.17
2022-09-01T20:29:12.173Z,76.21
2022-09-01T20:34:21.123Z,76.85
2022-09-01T20:40:01.928Z,77.40
2022-09-01T20:45:23.190Z,78.36
2022-09-01T20:50:34.846Z,78.31
2022-09-01T20:55:56.477Z,78.85
2022-09-01T21:01:20.295Z,79.72
2022-09-01T21:06:54.201Z,80.47
2022-09-01T21:12:26.597Z,81.35
2022-09-01T21:18:00.111Z,81.63
2022-09-01T21:23:02.101Z,81.27
2022-09-01T21:28:08.701Z,81.52
2022-09-01T21:33:10.514Z,82.17
2022-09-01T21:38:12.532Z,82.55
2022-09-01T21:43:19.184Z,83.07
2022-09-01T21:48:21.100Z,83.26
2022-09-01T21:53:23.180Z,83.79
2022-09-01T21:58:25.162Z,84.18
2022-09-01T22:03:27.038Z,84.20
2022-09-01T22:08:29.964Z,84.70
2022-09-01T22:13:31.817Z,84.84
2022-09-01T22:18:34.407Z,85.06
2022-09-01T22:23:37.925Z,84.96
2022-09-01T22:28:39.697Z,84.99
2022-09-01T22:33:41.984Z,85.13
2022-09-01T22:38:43.760Z,85.32
2022-09-01T22:43:46.148Z,85.63
2022-09-01T22:48:48.949Z,86.15
2022-09-01T22:53:51.133Z,86.28
2022-09-01T22:58:55.875Z,86.21
2022-09-01T23:04:00.212Z,86.24
2022-09-01T23:09:03.424Z,86.56
2022-09-01T23:14:05.708Z,86.81
2022-09-01T23:19:07.991Z,87.18
2022-09-01T23:24:10.379Z,87.81
2022-09-01T23:29:12.167Z,87.34
2022-09-01T23:34:14.033Z,87.58
2022-09-01T23:39:16.011Z,87.54
2022-09-01T23:44:17.888Z,87.73
2022-09-01T23:49:20.071Z,87.90
2022-09-01T23:54:22.358Z,88.21
2022-09-01T23:59:27.336Z,88.23
